Time;durP1;ratioP1;P1;durP2;ratioP2;P2;SDS_P1;SDS_P2;PMS_P1;PMS_P2;Temp;Humidity;BMP_temperature;BMP_pressure;BME280_temperature;BME280_humidity;BME280_pressure;Samples;Min_cycle;Max_cycle;Signal;HPM_P1;HPM_P2
2023/04/23 00:01:39;;;;;;;32.53;16.27;;;7.60;99.90;;;;;;5044841;28;20191;-92
2023/04/23 00:04:07;;;;;;;40.53;18.37;;;7.60;99.90;;;;;;5042683;28;20172;-92
2023/04/23 00:06:33;;;;;;;45.10;17.77;;;;;;;;;;5043461;28;20181;-92
2023/04/23 00:09:00;;;;;;;49.83;17.37;;;7.70;99.90;;;;;;5041378;28;20185;-91
2023/04/23 00:11:27;;;;;;;42.27;16.47;;;7.30;99.90;;;;;;5042223;28;20203;-91
2023/04/23 00:13:53;;;;;;;44.60;18.33;;;7.50;99.90;;;;;;5041156;28;20200;-92
2023/04/23 00:16:19;;;;;;;34.90;17.33;;;7.40;99.90;;;;;;5041157;28;20204;-90
2023/04/23 00:18:46;;;;;;;36.13;17.00;;;7.30;99.90;;;;;;5041933;28;20185;-91
2023/04/23 00:21:12;;;;;;;41.60;16.40;;;7.40;99.90;;;;;;5023802;28;20445;-91
2023/04/23 00:23:38;;;;;;;34.87;17.40;;;7.20;99.90;;;;;;5024842;28;20181;-91
2023/04/23 00:26:05;;;;;;;55.33;18.77;;;7.30;99.90;;;;;;5041888;28;20181;-92
2023/04/23 00:28:31;;;;;;;41.23;17.00;;;;;;;;;;5023851;28;20639;-91
2023/04/23 00:30:57;;;;;;;46.17;16.97;;;;;;;;;;5023582;28;20670;-92
2023/04/23 00:33:22;;;;;;;42.77;17.90;;;7.30;99.90;;;;;;5025923;28;20192;-91
2023/04/23 00:35:48;;;;;;;42.50;17.83;;;6.40;99.90;;;;;;5037696;28;20219;-92
2023/04/23 00:38:14;;;;;;;34.70;16.83;;;7.20;99.90;;;;;;5038734;28;20211;-92
2023/04/23 00:40:39;;;;;;;46.83;17.03;;;7.20;99.90;;;;;;5038114;28;20211;-92
2023/04/23 00:43:06;;;;;;;36.23;15.70;;;;;;;;;;5038696;28;20184;-92
2023/04/23 00:45:32;;;;;;;45.70;17.33;;;7.20;99.90;;;;;;5037577;28;20200;-92
2023/04/23 00:47:58;;;;;;;36.80;14.83;;;7.20;99.90;;;;;;5038023;28;20267;-92
2023/04/23 00:50:24;;;;;;;39.40;17.00;;;7.10;99.90;;;;;;5037172;28;20223;-92
2023/04/23 00:52:50;;;;;;;46.10;14.90;;;;;;;;;;5018725;28;20181;-91
2023/04/23 00:55:19;;;;;;;40.13;16.07;;;7.10;99.90;;;;;;5017490;28;20586;-91
2023/04/23 00:57:46;;;;;;;32.17;13.00;;;7.00;99.90;;;;;;5000854;28;20193;-91
2023/04/23 01:00:12;;;;;;;38.23;16.07;;;7.00;99.90;;;;;;5002420;28;20161;-91
2023/04/23 01:02:40;;;;;;;38.97;16.13;;;7.00;99.90;;;;;;5002450;28;20958;-91
2023/04/23 01:05:08;;;;;;;36.90;14.73;;;6.90;99.90;;;;;;5019174;28;20193;-92
2023/04/23 01:07:35;;;;;;;32.07;14.30;;;6.90;99.90;;;;;;5018443;28;20659;-92
2023/04/23 01:10:01;;;;;;;31.40;13.93;;;;;;;;;;5032805;28;20209;-90
2023/04/23 01:12:26;;;;;;;50.27;16.37;;;6.90;99.90;;;;;;5037765;28;20192;-89
2023/04/23 01:14:52;;;;;;;33.80;14.37;;;6.90;99.90;;;;;;5021260;28;20205;-92
2023/04/23 01:17:18;;;;;;;30.17;13.17;;;;;;;;;;5020932;28;20679;-91
2023/04/23 01:19:44;;;;;;;37.77;13.07;;;6.80;99.90;;;;;;5033328;28;20185;-91
2023/04/23 01:22:12;;;;;;;29.77;12.63;;;6.80;99.90;;;;;;5019541;28;20233;-90
2023/04/23 01:24:38;;;;;;;30.93;13.13;;;6.70;99.90;;;;;;5035511;28;20229;-90
2023/04/23 01:27:05;;;;;;;35.43;14.87;;;6.70;99.90;;;;;;5033117;28;20208;-90
2023/04/23 01:29:33;;;;;;;40.07;13.13;;;6.70;99.90;;;;;;5006825;28;20222;-92
2023/04/23 01:31:59;;;;;;;31.07;13.33;;;6.60;99.90;;;;;;5022079;28;20235;-90
2023/04/23 01:34:25;;;;;;;33.83;13.90;;;6.60;99.90;;;;;;5006907;28;20208;-89
2023/04/23 01:36:51;;;;;;;36.17;12.67;;;6.50;99.90;;;;;;5014333;28;20185;-90
2023/04/23 01:39:17;;;;;;;32.13;12.73;;;6.50;99.90;;;;;;5016114;28;20241;-91
2023/04/23 01:41:43;;;;;;;25.10;12.83;;;6.50;99.90;;;;;;5030756;28;20489;-91
2023/04/23 01:44:09;;;;;;;29.87;12.93;;;6.50;99.90;;;;;;5025681;28;20185;-91
2023/04/23 01:46:36;;;;;;;31.90;13.60;;;6.40;99.90;;;;;;5016452;28;20200;-90
2023/04/23 01:49:02;;;;;;;23.77;11.00;;;6.50;99.90;;;;;;5000906;28;20228;-91
2023/04/23 01:51:29;;;;;;;31.03;12.93;;;6.40;99.90;;;;;;4983901;28;20235;-90
2023/04/23 01:53:55;;;;;;;32.50;12.87;;;6.40;99.90;;;;;;5017370;28;20252;-92
2023/04/23 01:56:25;;;;;;;31.93;13.53;;;6.40;99.90;;;;;;5014681;28;20228;-91
2023/04/23 01:58:51;;;;;;;31.10;12.87;;;6.30;99.90;;;;;;5014829;28;20256;-91
2023/04/23 02:01:17;;;;;;;37.20;12.83;;;6.30;99.90;;;;;;5016051;28;20690;-91
2023/04/23 02:03:44;;;;;;;36.83;13.73;;;6.30;99.90;;;;;;4998167;28;20181;-91
2023/04/23 02:06:10;;;;;;;36.37;13.37;;;6.00;99.90;;;;;;5016856;28;20652;-91
2023/04/23 02:08:36;;;;;;;28.40;12.07;;;6.30;99.90;;;;;;5002395;28;20177;-91
2023/04/23 02:11:02;;;;;;;33.60;13.90;;;6.30;99.90;;;;;;5020026;28;20254;-92
2023/04/23 02:13:27;;;;;;;30.57;13.13;;;6.20;99.90;;;;;;5004280;28;20185;-89
2023/04/23 02:15:53;;;;;;;34.00;13.27;;;6.10;99.90;;;;;;5015609;28;20224;-91
2023/04/23 02:18:19;;;;;;;23.50;12.83;;;6.00;99.90;;;;;;5025388;28;20192;-91
2023/04/23 02:20:44;;;;;;;32.23;13.67;;;6.10;99.90;;;;;;4995122;28;20547;-91
2023/04/23 02:23:11;;;;;;;28.77;12.37;;;6.10;99.90;;;;;;5018739;28;20189;-91
2023/04/23 02:25:40;;;;;;;30.80;14.10;;;6.00;99.90;;;;;;4986095;28;20248;-92
2023/04/23 02:28:07;;;;;;;30.27;13.80;;;6.00;99.90;;;;;;5018234;28;20204;-92
2023/04/23 02:30:34;;;;;;;32.43;14.77;;;5.90;99.90;;;;;;5018561;28;20181;-92
2023/04/23 02:33:00;;;;;;;35.53;15.77;;;;;;;;;;5017850;28;20189;-92
2023/04/23 02:35:25;;;;;;;33.23;15.33;;;6.00;99.90;;;;;;5001869;28;20217;-92
2023/04/23 02:37:53;;;;;;;36.20;13.00;;;6.00;99.90;;;;;;5017840;28;20200;-92
2023/04/23 02:40:19;;;;;;;37.30;13.50;;;5.90;99.90;;;;;;5018921;28;20177;-90
2023/04/23 02:42:44;;;;;;;39.93;13.57;;;5.90;99.90;;;;;;4985469;28;20181;-91
2023/04/23 02:45:10;;;;;;;29.03;13.43;;;5.90;99.90;;;;;;4986221;28;20197;-90
2023/04/23 02:47:37;;;;;;;34.40;14.00;;;;;;;;;;5017065;28;20196;-91
2023/04/23 02:50:05;;;;;;;33.50;13.90;;;;;;;;;;5017806;28;20223;-90
2023/04/23 02:52:31;;;;;;;31.77;12.93;;;5.80;99.90;;;;;;5019327;28;20197;-91
2023/04/23 02:54:57;;;;;;;28.33;11.80;;;5.80;99.90;;;;;;5001499;28;20267;-91
2023/04/23 02:57:22;;;;;;;31.07;12.93;;;5.80;99.90;;;;;;5017696;28;20201;-91
2023/04/23 02:59:49;;;;;;;35.13;13.77;;;5.80;99.90;;;;;;5017401;28;20189;-91
2023/04/23 03:02:15;;;;;;;29.30;13.67;;;5.80;99.90;;;;;;5018242;28;20196;-92
2023/04/23 03:04:41;;;;;;;33.73;12.47;;;5.70;99.90;;;;;;5001165;28;20185;-92
2023/04/23 03:07:06;;;;;;;31.40;12.40;;;5.70;99.90;;;;;;5001978;28;20185;-93
2023/04/23 03:09:32;;;;;;;32.27;13.43;;;5.70;99.90;;;;;;5001528;28;20242;-92
2023/04/23 03:11:58;;;;;;;24.13;11.83;;;5.70;99.90;;;;;;5016841;28;20185;-92
2023/04/23 03:14:24;;;;;;;29.93;12.43;;;6.10;99.90;;;;;;5016335;28;20189;-91
2023/04/23 03:16:49;;;;;;;28.60;11.60;;;5.60;99.90;;;;;;5000383;28;20185;-90
2023/04/23 03:19:15;;;;;;;23.23;11.30;;;5.60;99.90;;;;;;5017635;28;20196;-93
2023/04/23 03:21:41;;;;;;;25.30;11.17;;;5.60;99.90;;;;;;4984521;28;20275;-91
2023/04/23 03:24:07;;;;;;;29.20;12.77;;;5.60;99.90;;;;;;5016911;28;20233;-91
2023/04/23 03:26:33;;;;;;;32.13;11.67;;;5.60;99.90;;;;;;5017468;28;20185;-92
2023/04/23 03:28:59;;;;;;;24.83;10.30;;;5.60;99.90;;;;;;5016845;28;20182;-92
2023/04/23 03:31:25;;;;;;;24.47;10.87;;;;;;;;;;5016703;28;20280;-91
2023/04/23 03:33:51;;;;;;;25.03;10.47;;;5.60;99.90;;;;;;5015760;28;20181;-90
2023/04/23 03:36:17;;;;;;;25.83;11.57;;;5.60;99.90;;;;;;5000201;28;20260;-91
2023/04/23 03:38:42;;;;;;;22.87;10.40;;;5.60;99.90;;;;;;5016211;28;20193;-94
2023/04/23 03:41:08;;;;;;;21.53;10.67;;;5.60;99.90;;;;;;5016169;28;20276;-92
2023/04/23 03:43:34;;;;;;;24.23;10.30;;;5.60;99.90;;;;;;5017105;28;20617;-92
2023/04/23 03:45:59;;;;;;;25.73;10.70;;;5.60;99.90;;;;;;4999203;28;20708;-92
2023/04/23 03:48:25;;;;;;;35.20;10.43;;;5.80;99.90;;;;;;5017161;28;20181;-90
2023/04/23 03:50:51;;;;;;;28.00;10.93;;;5.90;99.90;;;;;;4998947;28;20186;-91
2023/04/23 03:53:17;;;;;;;24.47;9.50;;;5.70;99.90;;;;;;4999197;28;20667;-91
2023/04/23 03:55:43;;;;;;;24.47;10.60;;;5.70;99.90;;;;;;4998719;28;20204;-91
2023/04/23 03:58:09;;;;;;;23.77;9.80;;;5.80;99.90;;;;;;4999167;28;20185;-91
2023/04/23 04:00:35;;;;;;;20.53;10.73;;;5.80;99.90;;;;;;4998709;28;20177;-91
2023/04/23 04:03:01;;;;;;;26.20;11.10;;;5.80;99.90;;;;;;4998672;28;20259;-91
2023/04/23 04:05:27;;;;;;;22.20;9.63;;;5.90;99.90;;;;;;4999836;28;20185;-91
2023/04/23 04:07:53;;;;;;;23.37;9.53;;;5.90;99.90;;;;;;5014621;28;20178;-91
2023/04/23 04:10:19;;;;;;;23.13;10.93;;;6.00;99.90;;;;;;5015250;28;20254;-91
2023/04/23 04:12:46;;;;;;;25.90;10.43;;;6.10;99.90;;;;;;4998638;28;20594;-91
2023/04/23 04:15:12;;;;;;;20.30;9.23;;;6.30;99.90;;;;;;5015463;28;20212;-92
2023/04/23 04:17:38;;;;;;;34.13;10.77;;;6.40;99.90;;;;;;5017060;28;20663;-90
2023/04/23 04:20:07;;;;;;;19.77;8.50;;;6.40;99.90;;;;;;4999273;28;20189;-91
2023/04/23 04:22:33;;;;;;;22.20;8.50;;;6.50;99.90;;;;;;5016138;28;20173;-91
2023/04/23 04:24:58;;;;;;;16.10;8.53;;;6.60;99.90;;;;;;4998508;28;20727;-90
2023/04/23 04:27:24;;;;;;;18.70;9.33;;;6.70;99.90;;;;;;4982828;28;20204;-89
2023/04/23 04:29:50;;;;;;;15.53;7.87;;;6.80;99.90;;;;;;4982471;28;20193;-90
2023/04/23 04:32:16;;;;;;;17.17;10.07;;;6.90;99.90;;;;;;4999613;28;20185;-91
2023/04/23 04:34:42;;;;;;;18.63;8.67;;;7.00;99.90;;;;;;4998787;28;20664;-91
2023/04/23 04:37:09;;;;;;;18.00;9.03;;;7.10;99.90;;;;;;5015292;28;20246;-90
2023/04/23 04:39:35;;;;;;;15.70;8.17;;;7.20;99.90;;;;;;5014812;28;20189;-91
2023/04/23 04:42:01;;;;;;;18.37;8.37;;;7.30;99.90;;;;;;4997885;28;20196;-92
2023/04/23 04:44:28;;;;;;;17.93;7.03;;;7.50;99.90;;;;;;4982867;28;20189;-92
2023/04/23 04:46:53;;;;;;;13.40;7.87;;;7.70;99.90;;;;;;5015639;28;20189;-91
2023/04/23 04:49:20;;;;;;;16.70;7.40;;;7.80;99.90;;;;;;4998345;28;20184;-93
2023/04/23 04:51:46;;;;;;;19.87;8.30;;;8.00;99.90;;;;;;4998459;28;20192;-93
2023/04/23 04:54:13;;;;;;;16.33;6.93;;;8.10;99.90;;;;;;5014753;28;20195;-93
2023/04/23 04:56:39;;;;;;;18.47;7.27;;;8.30;99.90;;;;;;4998278;28;20201;-91
2023/04/23 04:59:04;;;;;;;19.23;8.17;;;8.40;99.90;;;;;;4981830;28;20659;-91
2023/04/23 05:01:32;;;;;;;14.87;7.37;;;8.60;99.90;;;;;;5015930;28;20193;-92
2023/04/23 05:03:58;;;;;;;17.67;7.93;;;8.80;99.90;;;;;;4997761;28;20208;-91
2023/04/23 05:06:24;;;;;;;17.13;8.13;;;8.90;99.90;;;;;;4998269;28;20607;-92
2023/04/23 05:08:49;;;;;;;18.73;8.38;;;9.10;99.90;;;;;;4998755;28;20201;-90
2023/04/23 05:11:17;;;;;;;17.45;8.93;;;9.30;99.90;;;;;;4998233;28;20315;-92
2023/04/23 05:13:48;;;;;;;19.97;8.87;;;9.40;99.90;;;;;;5014455;28;20182;-91
2023/04/23 05:16:14;;;;;;;18.13;7.75;;;9.60;99.90;;;;;;5013993;28;20266;-91
2023/04/23 05:18:41;;;;;;;17.80;7.73;;;9.70;99.90;;;;;;4997972;28;20312;-93
2023/04/23 05:21:06;;;;;;;15.07;7.18;;;9.80;99.90;;;;;;5015242;28;20556;-93
2023/04/23 05:23:33;;;;;;;18.15;6.55;;;9.90;99.90;;;;;;4998694;28;20188;-91
2023/04/23 05:25:59;;;;;;;19.33;8.75;;;10.10;99.90;;;;;;5013910;28;20241;-91
2023/04/23 05:28:24;;;;;;;12.20;6.05;;;10.20;99.90;;;;;;5022139;28;20181;-91
2023/04/23 05:30:55;;;;;;;9.65;5.75;;;10.40;99.90;;;;;;5023198;28;20870;-91
2023/04/23 05:33:20;;;;;;;13.90;5.65;;;10.50;99.90;;;;;;5008209;28;20181;-91
2023/04/23 05:35:46;;;;;;;13.77;4.80;;;10.70;99.90;;;;;;5012620;28;20253;-92
2023/04/23 05:38:12;;;;;;;9.73;4.50;;;10.80;99.90;;;;;;4997760;28;20189;-91
2023/04/23 05:40:38;;;;;;;10.02;4.65;;;11.00;99.90;;;;;;4996414;28;20182;-92
2023/04/23 05:43:04;;;;;;;10.43;4.72;;;11.20;99.90;;;;;;4996181;28;20205;-90
2023/04/23 05:45:29;;;;;;;8.48;4.90;;;11.40;99.90;;;;;;4994832;28;20186;-93
2023/04/23 05:47:55;;;;;;;10.63;4.47;;;11.50;99.90;;;;;;4978336;28;20182;-92
2023/04/23 05:50:21;;;;;;;8.30;4.40;;;11.70;99.90;;;;;;4994008;28;20190;-91
2023/04/23 05:52:47;;;;;;;7.57;4.25;;;11.80;99.90;;;;;;4978477;28;20174;-93
2023/04/23 05:55:14;;;;;;;9.52;4.13;;;12.00;99.90;;;;;;4979310;28;20232;-93
2023/04/23 05:57:40;;;;;;;5.95;3.55;;;12.20;99.90;;;;;;4996172;28;20274;-91
2023/04/23 06:00:13;;;;;;;7.32;3.97;;;12.30;99.90;;;;;;4963168;28;20213;-93
2023/04/23 06:02:39;;;;;;;6.10;4.28;;;12.50;99.90;;;;;;4996918;28;20166;-92
2023/04/23 06:05:06;;;;;;;11.45;3.97;;;12.70;99.90;;;;;;4998144;28;20189;-92
2023/04/23 06:07:33;;;;;;;7.57;3.65;;;12.90;99.90;;;;;;4997133;28;20229;-91
2023/04/23 06:09:59;;;;;;;6.10;3.15;;;13.10;99.90;;;;;;5005693;28;20186;-92
2023/04/23 06:12:24;;;;;;;8.93;4.05;;;13.20;99.90;;;;;;5014569;28;20258;-93
2023/04/23 06:14:52;;;;;;;6.40;3.35;;;13.40;99.30;;;;;;5013878;28;20391;-91
2023/04/23 06:17:17;;;;;;;4.85;3.00;;;13.60;98.90;;;;;;5016284;28;20196;-91
2023/04/23 06:19:43;;;;;;;5.45;3.13;;;13.70;97.40;;;;;;5030524;28;20177;-92
2023/04/23 06:22:11;;;;;;;8.02;2.95;;;13.90;97.20;;;;;;5026067;28;20719;-94
2023/04/23 06:24:37;;;;;;;4.30;3.17;;;14.00;96.40;;;;;;5027863;28;20314;-93
2023/04/23 06:27:07;;;;;;;5.32;3.03;;;14.20;96.90;;;;;;5033468;28;20227;-91
2023/04/23 06:29:32;;;;;;;7.22;2.88;;;14.40;94.80;;;;;;5017562;28;20191;-91
2023/04/23 06:32:04;;;;;;;5.00;2.80;;;14.60;94.20;;;;;;5034222;28;20176;-92
2023/04/23 06:34:30;;;;;;;5.43;2.88;;;14.80;91.00;;;;;;5025551;28;20193;-91
2023/04/23 06:36:57;;;;;;;5.82;2.92;;;14.90;88.30;;;;;;5032485;28;20245;-90
2023/04/23 06:39:22;;;;;;;5.40;2.35;;;15.00;88.40;;;;;;5027373;28;20184;-91
2023/04/23 06:41:48;;;;;;;4.05;2.50;;;15.20;88.00;;;;;;4996585;28;20188;-92
2023/04/23 06:44:14;;;;;;;4.78;2.75;;;15.30;86.70;;;;;;4995897;28;20273;-92
2023/04/23 06:46:40;;;;;;;7.68;2.13;;;15.40;88.30;;;;;;5013189;28;20637;-92
2023/04/23 06:49:06;;;;;;;4.82;2.47;;;15.40;83.50;;;;;;5014176;28;20224;-91
2023/04/23 06:51:31;;;;;;;4.90;2.70;;;15.40;82.60;;;;;;5014340;28;20304;-92
2023/04/23 06:53:57;;;;;;;4.43;2.25;;;15.50;83.20;;;;;;5012806;28;20659;-93
2023/04/23 06:56:24;;;;;;;3.25;2.10;;;16.10;83.70;;;;;;5019021;28;20220;-92
2023/04/23 06:58:50;;;;;;;3.53;2.30;;;15.70;81.40;;;;;;5023357;28;20181;-90
2023/04/23 07:01:16;;;;;;;3.50;2.42;;;15.80;79.40;;;;;;5027631;28;20230;-89
2023/04/23 07:03:43;;;;;;;5.78;2.45;;;15.80;77.20;;;;;;5037112;28;20207;-91
2023/04/23 07:06:09;;;;;;;4.20;2.80;;;15.90;76.90;;;;;;5019449;28;20176;-92
2023/04/23 07:08:35;;;;;;;7.93;3.03;;;15.90;74.70;;;;;;5015500;28;20185;-92
2023/04/23 07:11:01;;;;;;;6.57;2.30;;;15.90;77.00;;;;;;5031222;28;20181;-91
2023/04/23 07:13:27;;;;;;;3.92;2.08;;;16.10;76.70;;;;;;5038572;28;20173;-89
2023/04/23 07:15:52;;;;;;;3.80;2.00;;;16.30;75.30;;;;;;5015015;28;20217;-91
2023/04/23 07:18:18;;;;;;;1.95;1.50;;;16.40;72.60;;;;;;5016891;28;20193;-90
2023/04/23 07:20:45;;;;;;;2.58;1.70;;;16.40;69.50;;;;;;5002419;28;20221;-92
2023/04/23 07:23:10;;;;;;;2.47;1.60;;;16.40;73.40;;;;;;4997574;28;20197;-91
2023/04/23 07:25:36;;;;;;;2.63;1.70;;;16.50;70.10;;;;;;5011915;28;20275;-91
2023/04/23 07:28:02;;;;;;;2.53;1.65;;;16.50;65.30;;;;;;5016109;28;20707;-91
2023/04/23 07:30:29;;;;;;;3.28;2.00;;;16.60;64.20;;;;;;5013788;28;20946;-92
2023/04/23 07:32:55;;;;;;;2.00;1.50;;;16.60;65.20;;;;;;5029373;28;20162;-90
2023/04/23 07:35:20;;;;;;;2.42;1.70;;;16.70;64.60;;;;;;5036733;28;20208;-89
2023/04/23 07:37:46;;;;;;;2.75;1.98;;;16.80;63.60;;;;;;5037405;28;20204;-90
2023/04/23 07:40:12;;;;;;;2.80;1.67;;;16.90;65.00;;;;;;5037621;28;20181;-89
2023/04/23 07:42:38;;;;;;;3.83;1.65;;;17.00;65.40;;;;;;5038054;28;20205;-91
2023/04/23 07:45:04;;;;;;;2.15;1.90;;;17.20;62.90;;;;;;5037662;28;20220;-91
2023/04/23 07:47:30;;;;;;;6.47;1.38;;;17.20;63.30;;;;;;5030876;28;20392;-92
2023/04/23 07:49:56;;;;;;;1.80;1.40;;;17.40;63.00;;;;;;5029043;28;20186;-92
2023/04/23 07:52:25;;;;;;;3.50;1.73;;;17.40;62.80;;;;;;5015412;28;20211;-91
2023/04/23 07:54:51;;;;;;;4.28;1.85;;;17.50;60.70;;;;;;5047203;28;20212;-90
2023/04/23 07:57:17;;;;;;;3.05;1.58;;;17.60;62.80;;;;;;5011821;28;20189;-88
2023/04/23 07:59:43;;;;;;;2.85;1.73;;;17.60;65.10;;;;;;5017956;28;20729;-86
2023/04/23 08:02:08;;;;;;;3.50;1.70;;;17.80;62.30;;;;;;5014954;28;20323;-89
2023/04/23 08:04:34;;;;;;;3.55;2.10;;;17.90;60.00;;;;;;5003539;28;20262;-89
2023/04/23 08:07:00;;;;;;;3.17;1.40;;;18.00;60.20;;;;;;5027856;28;20177;-89
2023/04/23 08:09:28;;;;;;;12.18;1.98;;;17.80;61.90;;;;;;5013197;28;20212;-89
2023/04/23 08:11:54;;;;;;;2.95;1.98;;;18.10;62.90;;;;;;5027480;28;20177;-90
2023/04/23 08:14:20;;;;;;;7.15;1.50;;;17.90;60.80;;;;;;5023286;28;20253;-89
2023/04/23 08:16:46;;;;;;;2.65;1.65;;;;;;;;;;5000350;28;20197;-88
2023/04/23 08:19:11;;;;;;;1.92;1.52;;;17.90;58.90;;;;;;5010038;28;20221;-91
2023/04/23 08:21:37;;;;;;;2.47;1.67;;;17.90;59.50;;;;;;5017709;28;20193;-90
2023/04/23 08:24:07;;;;;;;3.60;1.80;;;18.10;60.50;;;;;;5019691;28;20177;-89
2023/04/23 08:26:33;;;;;;;3.80;1.70;;;18.10;59.20;;;;;;5014718;28;20530;-90
2023/04/23 08:29:04;;;;;;;4.10;1.88;;;18.40;64.20;;;;;;4997978;28;20189;-89
2023/04/23 08:31:30;;;;;;;5.57;2.03;;;18.20;60.50;;;;;;5016387;28;20191;-89
2023/04/23 08:33:58;;;;;;;3.33;1.60;;;18.90;61.30;;;;;;4998642;28;20556;-90
2023/04/23 08:36:25;;;;;;;3.63;1.83;;;18.60;60.50;;;;;;5013915;28;20236;-88
2023/04/23 08:38:51;;;;;;;6.47;2.05;;;18.50;59.00;;;;;;5014518;28;20181;-91
2023/04/23 08:41:21;;;;;;;2.40;1.52;;;18.60;60.90;;;;;;5015513;28;20177;-90
2023/04/23 08:43:58;;;;;;;4.88;1.77;;;18.80;58.70;;;;;;5013426;28;20200;-85
2023/04/23 08:46:26;;;;;;;2.28;1.75;;;18.70;58.70;;;;;;5014151;28;20244;-86
2023/04/23 08:48:52;;;;;;;6.25;1.70;;;18.70;57.90;;;;;;5011347;28;20196;-85
2023/04/23 08:51:21;;;;;;;3.72;1.80;;;18.70;57.60;;;;;;5012348;28;20184;-86
2023/04/23 08:54:13;;;;;;;3.65;1.40;;;18.70;58.20;;;;;;5011914;28;20188;-87
2023/04/23 08:56:39;;;;;;;3.08;1.58;;;17.80;56.10;;;;;;5012965;28;20209;-91
2023/04/23 08:59:06;;;;;;;3.38;1.80;;;19.30;57.50;;;;;;5004472;28;20190;-87
2023/04/23 09:01:32;;;;;;;3.88;2.15;;;19.00;56.60;;;;;;5010951;28;20185;-89
2023/04/23 09:03:59;;;;;;;2.63;1.90;;;19.00;53.80;;;;;;4994475;28;20204;-87
2023/04/23 09:06:25;;;;;;;2.35;1.48;;;19.00;56.10;;;;;;5012753;28;20181;-88
2023/04/23 09:08:52;;;;;;;4.50;1.77;;;19.10;55.40;;;;;;4991537;28;20178;-84
2023/04/23 09:11:18;;;;;;;4.30;1.60;;;19.20;58.10;;;;;;4978004;28;20531;-85
2023/04/23 09:13:44;;;;;;;2.35;1.25;;;19.30;55.40;;;;;;5009684;28;20231;-86
2023/04/23 09:16:10;;;;;;;2.63;1.60;;;19.30;53.70;;;;;;4994016;28;20609;-85
2023/04/23 09:18:36;;;;;;;4.20;2.15;;;19.20;55.30;;;;;;5009642;28;20709;-85
2023/04/23 09:21:03;;;;;;;2.88;1.70;;;19.30;54.20;;;;;;5004214;28;20212;-85
2023/04/23 09:23:30;;;;;;;3.55;2.00;;;19.40;54.30;;;;;;5009223;28;20203;-84
2023/04/23 09:25:56;;;;;;;3.08;1.92;;;19.40;55.30;;;;;;5009995;28;20229;-84
2023/04/23 09:28:36;;;;;;;3.80;1.90;;;19.40;55.20;;;;;;5010176;28;20192;-83
2023/04/23 09:31:05;;;;;;;1.95;1.70;;;19.40;55.10;;;;;;5026966;28;20188;-84
2023/04/23 09:33:33;;;;;;;4.07;1.98;;;19.20;54.00;;;;;;5009373;28;20678;-84
2023/04/23 09:36:14;;;;;;;2.55;1.73;;;19.20;53.40;;;;;;5011497;28;20209;-85
2023/04/23 09:38:43;;;;;;;6.18;1.77;;;19.20;54.90;;;;;;5027205;28;20650;-84
2023/04/23 09:41:26;;;;;;;2.92;2.00;;;19.40;55.50;;;;;;5010323;28;20201;-84
2023/04/23 09:43:53;;;;;;;2.75;1.77;;;19.50;56.00;;;;;;4991664;28;20281;-84
2023/04/23 09:46:31;;;;;;;2.90;2.03;;;19.80;55.30;;;;;;4993829;28;20201;-84
2023/04/23 09:48:56;;;;;;;4.28;2.80;;;19.90;54.40;;;;;;5010274;28;20193;-85
2023/04/23 09:51:24;;;;;;;6.97;2.15;;;19.90;56.70;;;;;;5009958;28;20285;-85
2023/04/23 09:53:50;;;;;;;2.85;1.95;;;19.90;55.80;;;;;;5011143;28;20567;-88
2023/04/23 09:56:18;;;;;;;4.50;2.03;;;20.00;55.20;;;;;;5010075;28;20612;-84
2023/04/23 09:58:45;;;;;;;2.95;1.77;;;20.10;54.90;;;;;;5008647;28;20220;-85
2023/04/23 10:01:11;;;;;;;2.95;1.83;;;20.30;54.60;;;;;;5010328;28;20195;-84
2023/04/23 10:03:42;;;;;;;2.60;1.90;;;20.40;56.00;;;;;;5004813;28;20189;-85
2023/04/23 10:06:13;;;;;;;2.90;2.00;;;20.40;53.30;;;;;;5012092;28;20267;-84
2023/04/23 10:08:40;;;;;;;3.25;1.92;;;20.30;52.50;;;;;;5010752;28;20235;-84
2023/04/23 10:11:06;;;;;;;5.30;2.30;;;20.30;53.60;;;;;;5004334;28;20214;-87
2023/04/23 10:13:34;;;;;;;5.72;2.53;;;20.10;53.90;;;;;;5009160;28;20662;-85
2023/04/23 10:16:03;;;;;;;2.40;1.70;;;20.30;54.80;;;;;;5011123;28;20197;-85
2023/04/23 10:18:31;;;;;;;2.65;1.92;;;20.70;56.00;;;;;;5011323;28;20185;-84
2023/04/23 10:20:57;;;;;;;3.05;2.13;;;21.00;56.00;;;;;;5009741;28;20565;-85
2023/04/23 10:23:24;;;;;;;7.07;2.28;;;20.90;54.40;;;;;;5028762;28;20200;-85
2023/04/23 10:25:54;;;;;;;2.53;1.80;;;21.10;54.00;;;;;;5025988;28;20792;-84
2023/04/23 10:28:27;;;;;;;2.03;1.55;;;21.00;52.20;;;;;;5015154;28;20273;-85
2023/04/23 10:30:53;;;;;;;7.97;2.08;;;20.80;53.50;;;;;;5014958;28;20191;-84
2023/04/23 10:33:21;;;;;;;3.92;1.90;;;21.10;53.70;;;;;;5014262;28;20271;-85
2023/04/23 10:35:47;;;;;;;4.75;1.75;;;20.90;51.50;;;;;;5015124;28;20205;-84
2023/04/23 10:38:14;;;;;;;3.05;2.30;;;21.00;53.00;;;;;;5013528;28;20202;-86
2023/04/23 10:40:45;;;;;;;3.42;2.05;;;21.00;54.80;;;;;;5014533;28;20543;-85
2023/04/23 10:43:12;;;;;;;2.20;1.98;;;21.30;56.30;;;;;;5014623;28;20181;-85
2023/04/23 10:45:37;;;;;;;3.00;2.08;;;21.50;54.10;;;;;;4996572;28;20204;-85
2023/04/23 10:48:05;;;;;;;4.88;2.30;;;21.60;52.40;;;;;;4996449;28;20178;-85
2023/04/23 10:50:35;;;;;;;3.63;2.00;;;21.70;52.30;;;;;;4997220;28;20703;-85
2023/04/23 10:53:02;;;;;;;5.45;2.83;;;21.70;50.30;;;;;;5013083;28;20900;-84
2023/04/23 10:55:30;;;;;;;4.13;2.40;;;21.60;51.80;;;;;;5014214;28;20197;-85
2023/04/23 10:58:07;;;;;;;4.38;2.45;;;21.50;52.70;;;;;;5012622;28;20186;-84
2023/04/23 11:00:44;;;;;;;5.13;1.90;;;21.40;50.60;;;;;;5029307;28;20676;-84
2023/04/23 11:03:30;;;;;;;3.13;1.70;;;21.10;50.10;;;;;;5022564;28;20189;-85
2023/04/23 11:06:06;;;;;;;4.07;2.13;;;20.80;49.60;;;;;;5008368;28;20185;-83
2023/04/23 11:08:35;;;;;;;2.80;1.83;;;21.20;52.30;;;;;;5013069;28;20235;-84
2023/04/23 11:11:07;;;;;;;1.88;1.63;;;21.20;51.20;;;;;;5014185;28;20192;-84
2023/04/23 11:13:33;;;;;;;2.55;1.60;;;21.40;51.60;;;;;;5014387;28;20189;-84
2023/04/23 11:16:17;;;;;;;2.13;1.80;;;21.70;52.40;;;;;;5019760;28;20254;-85
2023/04/23 11:18:58;;;;;;;6.82;2.30;;;21.90;50.70;;;;;;5009738;28;20216;-83
2023/04/23 11:22:01;;;;;;;2.53;1.77;;;22.30;50.40;;;;;;5012591;28;20192;-83
2023/04/23 11:24:32;;;;;;;2.78;2.42;;;22.40;49.00;;;;;;5013855;28;20239;-82
2023/04/23 11:26:58;;;;;;;3.15;1.80;;;22.30;46.00;;;;;;5013873;28;20647;-82
2023/04/23 11:29:26;;;;;;;3.25;2.17;;;21.90;47.70;;;;;;5012467;28;20276;-83
2023/04/23 11:31:52;;;;;;;2.30;1.63;;;21.90;47.40;;;;;;5014146;28;20185;-84
2023/04/23 11:34:19;;;;;;;3.17;1.42;;;22.00;47.60;;;;;;5013802;28;20181;-83
2023/04/23 11:36:47;;;;;;;2.38;1.83;;;22.30;48.80;;;;;;5012851;28;20263;-84
2023/04/23 11:39:17;;;;;;;3.55;2.08;;;22.40;47.80;;;;;;5013311;28;20216;-84
2023/04/23 11:41:45;;;;;;;3.10;1.92;;;22.50;48.90;;;;;;5014616;28;20284;-85
2023/04/23 11:44:11;;;;;;;3.13;2.03;;;22.60;47.50;;;;;;5010441;28;20193;-84
2023/04/23 11:46:38;;;;;;;2.83;2.00;;;;;;;;;;5014327;28;20189;-85
2023/04/23 11:49:05;;;;;;;3.28;2.10;;;24.60;49.70;;;;;;5013651;28;20578;-86
2023/04/23 11:51:31;;;;;;;3.28;2.20;;;23.00;48.00;;;;;;5013576;28;20440;-85
2023/04/23 11:54:02;;;;;;;2.67;1.90;;;22.90;46.90;;;;;;5013064;28;20181;-86
2023/04/23 11:56:31;;;;;;;3.35;1.92;;;22.80;47.50;;;;;;5013925;28;20690;-85
2023/04/23 11:59:02;;;;;;;3.47;2.30;;;22.80;49.30;;;;;;5012069;28;20196;-87
2023/04/23 12:01:55;;;;;;;3.55;2.75;;;22.80;49.20;;;;;;5013679;28;20312;-86
2023/04/23 12:04:29;;;;;;;2.70;1.70;;;23.10;49.60;;;;;;5013479;28;20208;-86
2023/04/23 12:06:56;;;;;;;2.40;2.03;;;22.90;45.30;;;;;;5012041;28;20227;-83
2023/04/23 12:09:25;;;;;;;4.57;2.25;;;22.60;46.50;;;;;;5011654;28;20200;-85
2023/04/23 12:11:51;;;;;;;2.58;1.90;;;22.70;45.90;;;;;;5011966;28;20212;-83
2023/04/23 12:14:20;;;;;;;3.63;2.30;;;22.70;45.90;;;;;;5018362;28;20192;-86
2023/04/23 12:16:51;;;;;;;3.55;2.10;;;22.90;46.80;;;;;;5012224;28;20299;-86
2023/04/23 12:19:35;;;;;;;3.60;2.10;;;23.10;45.90;;;;;;5028999;28;20240;-85
2023/04/23 12:22:02;;;;;;;2.50;2.15;;;23.10;46.80;;;;;;5000130;28;20277;-84
2023/04/23 12:24:50;;;;;;;3.65;2.25;;;23.20;46.50;;;;;;5002496;28;20236;-85
2023/04/23 12:27:19;;;;;;;3.42;2.13;;;23.30;46.40;;;;;;5028793;28;20543;-85
2023/04/23 12:29:46;;;;;;;3.17;2.20;;;23.20;44.20;;;;;;5013831;28;20243;-84
2023/04/23 12:32:13;;;;;;;4.65;2.03;;;23.50;46.20;;;;;;4995647;28;20242;-84
2023/04/23 12:34:53;;;;;;;3.78;2.47;;;23.60;43.00;;;;;;5011510;28;20581;-85
2023/04/23 12:37:27;;;;;;;2.72;2.15;;;23.40;43.10;;;;;;5012232;28;20659;-83
2023/04/23 12:39:55;;;;;;;1.88;1.75;;;23.30;43.60;;;;;;5016457;28;20169;-86
2023/04/23 12:42:21;;;;;;;2.45;2.00;;;23.00;43.60;;;;;;4996180;28;20667;-84
2023/04/23 12:44:47;;;;;;;4.22;2.05;;;23.00;47.80;;;;;;4996129;28;20327;-84
2023/04/23 12:47:14;;;;;;;5.15;2.38;;;23.40;45.30;;;;;;5012343;28;20671;-84
2023/04/23 12:49:40;;;;;;;3.00;1.80;;;23.70;45.30;;;;;;5014333;28;20234;-83